Time;durP1;ratioP1;P1;durP2;ratioP2;P2;SDS_P1;SDS_P2;PMS_P1;PMS_P2;Temp;Humidity;BMP_temperature;BMP_pressure;BME280_temperature;BME280_humidity;BME280_pressure;Samples;Min_cycle;Max_cycle;Signal;HPM_P1;HPM_P2
2021/03/19 00:04:39;;;;;;;3.83;2.97;;;;;;;2.01;100.00;99110.21;3748575;78;396121;-80
2021/03/19 00:10:00;;;;;;;1.10;0.93;;;;;;;2.05;100.00;99104.31;3892805;74;391904;-80
2021/03/19 00:15:23;;;;;;;1.70;1.60;;;;;;;1.89;100.00;99108.31;3889496;74;393955;-80
2021/03/19 00:20:46;;;;;;;2.60;0.90;;;;;;;1.84;100.00;99105.05;3889940;75;391966;-80
2021/03/19 00:26:08;;;;;;;1.97;0.90;;;;;;;1.75;100.00;99101.66;3760283;77;389765;-79
2021/03/19 00:31:30;;;;;;;3.03;2.83;;;;;;;1.73;100.00;99102.56;3889447;74;396377;-79
2021/03/19 00:36:51;;;;;;;3.53;1.20;;;;;;;1.54;100.00;99100.98;3920162;72;391955;-79
2021/03/19 00:42:12;;;;;;;2.83;1.60;;;;;;;1.57;100.00;99090.25;3889018;74;396649;-80
2021/03/19 00:47:34;;;;;;;3.90;1.93;;;;;;;1.53;100.00;99091.30;3888899;74;396080;-79
2021/03/19 00:52:56;;;;;;;4.20;1.43;;;;;;;1.48;100.00;99096.16;3759808;77;396109;-79
2021/03/19 00:58:18;;;;;;;2.80;2.40;;;;;;;1.55;100.00;99090.38;3888984;74;396365;-79
2021/03/19 01:03:39;;;;;;;5.27;3.33;;;;;;;1.57;100.00;99087.34;3889474;74;396089;-79
2021/03/19 01:09:01;;;;;;;2.40;2.03;;;;;;;1.49;100.00;99087.67;3883567;74;396083;-80
2021/03/19 01:14:22;;;;;;;1.57;1.47;;;;;;;1.38;100.00;99096.02;3883270;74;391915;-80
2021/03/19 01:19:43;;;;;;;2.90;1.43;;;;;;;1.39;100.00;99100.32;3883070;74;391900;-79
2021/03/19 01:25:09;;;;;;;1.00;0.80;;;;;;;1.48;100.00;99111.06;3773480;76;390049;-79
2021/03/19 01:30:32;;;;;;;3.00;2.80;;;;;;;1.51;100.00;99103.04;3741978;78;392901;-79
2021/03/19 01:35:53;;;;;;;3.23;3.03;;;;;;;1.58;100.00;99095.91;3741874;77;391872;-78
2021/03/19 01:41:15;;;;;;;2.57;2.37;;;;;;;1.62;100.00;99089.23;3741875;78;395058;-79
2021/03/19 01:47:12;;;;;;;4.83;3.10;;;;;;;1.66;100.00;99088.80;3741985;78;396111;-79
2021/03/19 01:53:08;;;;;;;3.23;1.70;;;;;;;1.72;100.00;99087.42;3742142;78;396038;-78
2021/03/19 01:59:05;;;;;;;3.23;2.50;;;;;;;1.74;100.00;99089.23;3741898;78;396313;-78
2021/03/19 02:05:03;;;;;;;5.07;3.27;;;;;;;1.76;100.00;99085.63;3741796;77;396328;-78
2021/03/19 02:10:59;;;;;;;1.63;1.50;;;;;;;1.77;100.00;99079.84;3741668;78;396139;-78
2021/03/19 02:16:57;;;;;;;1.70;1.60;;;;;;;1.73;100.00;99087.09;3741564;77;396121;-78
2021/03/19 02:22:54;;;;;;;5.70;3.23;;;;;;;1.69;100.00;99075.34;3741664;78;396085;-78
2021/03/19 02:28:51;;;;;;;2.07;1.30;;;;;;;1.69;100.00;99077.28;3741805;77;396109;-78
2021/03/19 02:34:12;;;;;;;2.90;2.27;;;;;;;1.68;100.00;99083.83;3741685;77;392934;-78
2021/03/19 02:39:33;;;;;;;5.03;3.50;;;;;;;1.65;100.00;99078.52;3741847;77;396119;-79
2021/03/19 02:44:55;;;;;;;4.13;2.97;;;;;;;1.69;100.00;99080.77;3741810;77;396066;-78
2021/03/19 02:50:17;;;;;;;3.20;2.07;;;;;;;1.76;100.00;99077.48;3742158;77;396118;-78
2021/03/19 02:55:38;;;;;;;2.40;2.20;;;;;;;1.70;100.00;99069.34;3741584;78;396026;-78
2021/03/19 03:01:00;;;;;;;3.43;3.07;;;;;;;1.67;100.00;99065.39;3741637;78;396089;-78
2021/03/19 03:06:21;;;;;;;3.37;3.07;;;;;;;1.62;100.00;99067.55;3745580;77;396025;-78
2021/03/19 03:11:43;;;;;;;5.57;3.17;;;;;;;1.55;100.00;99070.63;3907977;74;392129;-78
2021/03/19 03:17:06;;;;;;;3.03;2.40;;;;;;;1.51;100.00;99075.12;3907756;74;396077;-78
2021/03/19 03:22:27;;;;;;;5.73;3.40;;;;;;;1.49;100.00;99084.96;3787786;76;396382;-78
2021/03/19 03:27:49;;;;;;;6.57;2.57;;;;;;;1.43;100.00;99095.81;3757452;78;396131;-78
2021/03/19 03:33:12;;;;;;;14.03;3.30;;;;;;;1.36;100.00;99087.47;3754634;78;391879;-79
2021/03/19 03:38:34;;;;;;;4.40;4.00;;;;;;;1.32;100.00;99094.67;3754387;78;396069;-78
2021/03/19 03:43:55;;;;;;;2.70;2.03;;;;;;;1.32;100.00;99096.03;3754107;78;396086;-78
2021/03/19 03:49:19;;;;;;;3.33;2.83;;;;;;;1.31;100.00;99095.02;3754337;78;395054;-78
2021/03/19 03:54:40;;;;;;;7.10;1.63;;;;;;;1.38;100.00;99089.83;3754399;78;396029;-78
2021/03/19 04:00:02;;;;;;;4.07;3.77;;;;;;;1.36;100.00;99092.08;3753938;78;396116;-78
2021/03/19 04:05:26;;;;;;;3.10;2.87;;;;;;;1.37;100.00;99085.53;3754286;77;393232;-77
2021/03/19 04:10:48;;;;;;;2.17;2.00;;;;;;;1.38;100.00;99092.53;3750111;77;396404;-77
2021/03/19 04:16:10;;;;;;;4.30;4.00;;;;;;;1.42;100.00;99090.16;3826915;75;396071;-77
2021/03/19 04:21:31;;;;;;;4.70;2.90;;;;;;;1.50;100.00;99095.23;3826525;75;396129;-77
2021/03/19 04:26:53;;;;;;;4.63;4.23;;;;;;;1.56;100.00;99096.02;3826652;75;396295;-78
2021/03/19 04:32:14;;;;;;;3.30;3.00;;;;;;;1.64;100.00;99107.31;3826666;76;396079;-77
2021/03/19 04:37:35;;;;;;;1.90;1.80;;;;;;;1.60;100.00;99105.85;3826363;75;396143;-78
2021/03/19 04:42:57;;;;;;;1.60;1.40;;;;;;;1.70;100.00;99115.44;3827049;75;392971;-77
2021/03/19 04:48:18;;;;;;;11.93;4.80;;;;;;;1.63;100.00;99120.09;3826672;76;396032;-77
2021/03/19 04:53:39;;;;;;;3.13;2.33;;;;;;;1.62;100.00;99123.13;3826487;75;396126;-78
2021/03/19 04:59:01;;;;;;;3.50;2.40;;;;;;;1.67;100.00;99124.27;3826629;75;395039;-77
2021/03/19 05:04:24;;;;;;;1.83;1.73;;;;;;;1.72;100.00;99134.33;3826473;76;395082;-77
2021/03/19 05:09:45;;;;;;;1.00;0.80;;;;;;;1.70;100.00;99147.42;3823852;74;387730;-77
2021/03/19 05:15:07;;;;;;;6.87;2.67;;;;;;;1.59;100.00;99148.22;3821180;75;396103;-77
2021/03/19 05:20:29;;;;;;;4.10;2.57;;;;;;;1.62;100.00;99158.36;3821131;76;394048;-77
2021/03/19 05:25:50;;;;;;;0.80;0.50;;;;;;;1.53;100.00;99171.27;3822439;75;383576;-77
2021/03/19 05:31:12;;;;;;;1.30;1.20;;;;;;;1.53;100.00;99179.40;3822071;77;383828;-77
2021/03/19 05:36:34;;;;;;;1.87;1.60;;;;;;;1.49;100.00;99186.61;3822090;75;383572;-77
2021/03/19 05:41:56;;;;;;;1.20;1.10;;;;;;;1.33;100.00;99186.27;3821874;77;387749;-77
2021/03/19 05:47:17;;;;;;;1.50;1.40;;;;;;;1.36;100.00;99200.47;3821837;75;383619;-77
2021/03/19 05:52:38;;;;;;;1.00;0.90;;;;;;;1.39;100.00;99207.37;3821825;76;392184;-77
2021/03/19 05:58:00;;;;;;;1.80;1.40;;;;;;;1.39;100.00;99210.08;3821415;76;396293;-77
2021/03/19 06:03:21;;;;;;;1.30;1.20;;;;;;;1.35;100.00;99207.83;3821662;76;396039;-77
2021/03/19 06:08:45;;;;;;;3.13;1.13;;;;;;;1.32;100.00;99209.06;3840924;75;396069;-77
2021/03/19 06:14:16;;;;;;;1.53;1.20;;;;;;;1.26;100.00;99219.86;3882963;75;396338;-78
2021/03/19 06:19:52;;;;;;;1.73;1.00;;;;;;;1.19;100.00;99223.14;3773180;77;396041;-77
2021/03/19 06:25:40;;;;;;;1.20;1.10;;;;;;;1.28;100.00;99222.49;3742807;78;385621;-77
2021/03/19 06:31:29;;;;;;;2.40;2.23;;;;;;;1.36;100.00;99224.86;3741954;78;396085;-78
2021/03/19 06:36:54;;;;;;;1.77;1.00;;;;;;;1.48;100.00;99235.17;3742129;78;394279;-78
2021/03/19 06:42:21;;;;;;;2.80;1.73;;;;;;;1.61;100.00;99230.02;3773099;76;396124;-78
2021/03/19 06:47:48;;;;;;;1.27;1.17;;;;;;;1.79;100.00;99238.95;3773381;77;395036;-78
2021/03/19 06:53:18;;;;;;;1.33;1.07;;;;;;;1.99;100.00;99248.11;3742725;78;383903;-77
2021/03/19 06:58:49;;;;;;;3.97;3.67;;;;;;;2.06;100.00;99241.55;3742936;76;396084;-78
2021/03/19 07:04:45;;;;;;;3.23;2.13;;;;;;;2.26;100.00;99243.36;3742135;78;394014;-77
2021/03/19 07:10:26;;;;;;;2.63;2.43;;;;;;;2.28;100.00;99251.92;3750129;78;396432;-76
2021/03/19 07:16:05;;;;;;;4.53;1.90;;;;;;;2.40;100.00;99251.34;3907863;74;394052;-78
2021/03/19 07:21:49;;;;;;;3.13;1.70;;;;;;;2.42;100.00;99259.37;3790636;76;390822;-79
2021/03/19 07:27:26;;;;;;;1.73;1.27;;;;;;;2.48;100.00;99272.15;3908366;74;387826;-77
2021/03/19 07:33:06;;;;;;;2.90;1.70;;;;;;;2.66;100.00;99278.36;3872483;75;396038;-77
2021/03/19 07:38:42;;;;;;;5.80;2.77;;;;;;;2.78;100.00;99281.03;3790716;76;394030;-77
2021/03/19 07:44:18;;;;;;;3.37;3.13;;;;;;;2.75;100.00;99285.78;3907606;74;396322;-77
2021/03/19 07:50:14;;;;;;;1.73;1.63;;;;;;;2.81;100.00;99293.94;3736218;76;387739;-77
2021/03/19 07:56:03;;;;;;;1.63;1.53;;;;;;;3.33;100.00;99294.66;3696367;78;396337;-77
2021/03/19 08:01:41;;;;;;;2.30;1.00;;;;;;;3.79;100.00;99300.78;3754437;78;394088;-76
2021/03/19 08:07:28;;;;;;;1.13;1.03;;;;;;;3.81;100.00;99313.44;3732778;76;391906;-78
2021/03/19 08:13:07;;;;;;;2.50;2.00;;;;;;;3.71;100.00;99323.50;3745994;77;389809;-78
2021/03/19 08:18:50;;;;;;;7.23;3.43;;;;;;;3.89;100.00;99329.63;3773405;76;394282;-77
2021/03/19 08:24:40;;;;;;;2.80;2.57;;;;;;;3.92;100.00;99330.27;3772783;77;396364;-77
2021/03/19 08:30:07;;;;;;;1.80;1.70;;;;;;;4.39;100.00;99334.59;3741612;77;396069;-77
2021/03/19 08:36:00;;;;;;;7.73;3.50;;;;;;;4.54;100.00;99349.34;3743238;76;396278;-77
2021/03/19 08:41:27;;;;;;;3.97;1.23;;;;;;;4.72;100.00;99349.98;3742021;77;388071;-78
2021/03/19 08:46:54;;;;;;;3.63;2.30;;;;;;;5.53;100.00;99348.66;3742893;77;396073;-78
2021/03/19 08:52:35;;;;;;;3.00;2.00;;;;;;;6.06;97.79;99346.96;3741651;78;395086;-78
2021/03/19 08:57:59;;;;;;;1.50;1.37;;;;;;;5.34;94.60;99364.23;3742404;78;392109;-77
2021/03/19 09:03:44;;;;;;;6.80;2.33;;;;;;;5.48;93.85;99367.24;3741601;77;396100;-77
2021/03/19 09:09:35;;;;;;;3.10;2.77;;;;;;;5.03;95.01;99373.08;3744056;77;393954;-78
2021/03/19 09:15:18;;;;;;;2.70;2.50;;;;;;;4.57;97.14;99378.03;3905944;75;394283;-77
2021/03/19 09:20:48;;;;;;;3.80;2.40;;;;;;;5.45;98.70;99369.91;3780007;76;396069;-77
2021/03/19 09:26:24;;;;;;;2.87;1.53;;;;;;;5.65;90.35;99373.64;3754267;78;396088;-76
2021/03/19 09:31:51;;;;;;;3.10;2.87;;;;;;;4.81;94.87;99385.42;3785581;76;396331;-76
2021/03/19 09:37:33;;;;;;;6.00;1.67;;;;;;;4.27;92.83;99394.61;3785204;76;391942;-76
2021/03/19 09:42:56;;;;;;;1.50;1.40;;;;;;;4.05;100.00;99393.80;3755121;78;385890;-76
2021/03/19 09:48:20;;;;;;;2.77;1.33;;;;;;;3.91;95.51;99398.11;3754210;78;396115;-76
2021/03/19 09:53:41;;;;;;;2.07;1.97;;;;;;;4.56;96.11;99386.57;3753665;78;396125;-77
2021/03/19 09:59:06;;;;;;;2.93;2.50;;;;;;;5.73;90.69;99389.81;3754046;78;396077;-76
2021/03/19 10:04:35;;;;;;;2.13;1.80;;;;;;;6.48;82.96;99388.91;3754166;78;396109;-77
2021/03/19 10:09:58;;;;;;;6.07;1.63;;;;;;;6.00;86.33;99392.89;3750396;77;395050;-77
2021/03/19 10:15:24;;;;;;;2.00;1.43;;;;;;;6.55;80.88;99393.12;3747808;78;395027;-77
2021/03/19 10:20:48;;;;;;;3.97;3.57;;;;;;;5.65;82.62;99402.30;3754009;76;396663;-76
2021/03/19 10:26:33;;;;;;;2.27;2.10;;;;;;;5.31;88.10;99408.58;3750759;78;396344;-76
2021/03/19 10:32:00;;;;;;;3.43;2.30;;;;;;;5.24;83.29;99415.83;3691787;78;395044;-76
2021/03/19 10:37:34;;;;;;;3.00;1.10;;;;;;;5.14;86.95;99428.64;3753016;78;394033;-77
2021/03/19 10:43:16;;;;;;;1.50;1.40;;;;;;;5.65;90.54;99424.13;3753390;77;391907;-77
2021/03/19 10:48:49;;;;;;;0.90;0.70;;;;;;;6.08;79.65;99432.06;3753662;78;392204;-80
2021/03/19 10:54:13;;;;;;;1.53;1.43;;;;;;;5.28;85.36;99442.59;3754155;77;391961;-80
2021/03/19 10:59:37;;;;;;;1.60;1.27;;;;;;;5.00;94.52;99446.05;3753234;78;396097;-81
2021/03/19 11:05:05;;;;;;;1.83;1.00;;;;;;;5.02;92.51;99448.63;3753817;78;383546;-81
2021/03/19 11:10:39;;;;;;;3.50;2.20;;;;;;;5.31;87.47;99452.81;3751647;76;389835;-81
2021/03/19 11:16:03;;;;;;;1.50;0.90;;;;;;;5.79;82.85;99443.55;3753432;77;393940;-80
2021/03/19 11:21:30;;;;;;;1.10;0.87;;;;;;;6.00;75.70;99455.70;3753951;78;391962;-80
2021/03/19 11:27:22;;;;;;;4.90;2.27;;;;;;;6.05;79.56;99464.98;3752950;77;396073;-79
2021/03/19 11:32:44;;;;;;;2.00;1.90;;;;;;;5.88;79.38;99471.43;3753123;78;396066;-79
2021/03/19 11:38:25;;;;;;;0.90;0.60;;;;;;;5.72;80.36;99476.94;3754272;78;383782;-79
2021/03/19 11:43:47;;;;;;;1.30;0.80;;;;;;;5.35;77.72;99489.13;3740050;78;385715;-80
2021/03/19 11:49:10;;;;;;;1.20;0.97;;;;;;;5.21;78.55;99486.85;3753521;78;392953;-80
2021/03/19 11:54:31;;;;;;;0.90;0.70;;;;;;;5.46;59.41;99487.44;3754242;78;388058;-81
2021/03/19 11:59:52;;;;;;;2.13;1.97;;;;;;;5.69;57.93;99494.60;3724693;78;392992;-80
2021/03/19 12:05:14;;;;;;;1.37;0.90;;;;;;;6.86;61.89;99493.23;3753264;78;390858;-80
2021/03/19 12:10:36;;;;;;;5.23;2.27;;;;;;;7.23;58.23;99490.91;3753507;76;396045;-80
2021/03/19 12:15:58;;;;;;;2.60;1.90;;;;;;;7.20;57.45;99497.91;3759059;77;393970;-81
2021/03/19 12:21:21;;;;;;;2.80;2.17;;;;;;;7.19;57.01;99492.81;3749152;77;394255;-81
2021/03/19 12:26:43;;;;;;;2.83;0.77;;;;;;;7.76;54.41;99490.52;3754845;77;388968;-80
2021/03/19 12:32:05;;;;;;;1.67;1.57;;;;;;;6.81;58.01;99498.43;3754175;78;394038;-81
2021/03/19 12:37:26;;;;;;;2.10;1.30;;;;;;;5.94;61.50;99499.47;3754563;77;394021;-81
2021/03/19 12:42:49;;;;;;;1.80;1.40;;;;;;;5.58;63.04;99498.44;3754598;78;391852;-80
2021/03/19 12:48:12;;;;;;;0.90;0.77;;;;;;;6.89;57.00;99493.86;3755520;78;383581;-81
2021/03/19 12:53:35;;;;;;;2.43;2.00;;;;;;;6.57;57.04;99497.41;3754520;78;393988;-80
2021/03/19 12:58:56;;;;;;;10.00;1.63;;;;;;;6.13;58.16;99498.11;3754428;78;395084;-81
2021/03/19 13:04:17;;;;;;;3.97;2.90;;;;;;;6.87;53.88;99487.39;3754572;78;391853;-80
2021/03/19 13:09:39;;;;;;;5.80;1.87;;;;;;;7.59;53.58;99494.39;3754554;77;390815;-81
2021/03/19 13:15:00;;;;;;;1.37;1.27;;;;;;;6.76;52.43;99499.30;3744959;77;396076;-80
2021/03/19 13:20:23;;;;;;;1.00;0.90;;;;;;;6.37;54.31;99488.23;3765373;77;383573;-80
2021/03/19 13:25:45;;;;;;;1.60;0.93;;;;;;;5.97;60.27;99500.67;3748297;78;385715;-80
2021/03/19 13:31:07;;;;;;;1.60;1.50;;;;;;;5.59;62.12;99506.84;3895111;74;393001;-80
2021/03/19 13:36:28;;;;;;;2.20;1.00;;;;;;;5.38;61.42;99519.21;3895431;74;390816;-80
2021/03/19 13:41:49;;;;;;;1.10;0.83;;;;;;;5.23;62.01;99520.61;3896026;74;387744;-80
2021/03/19 13:47:11;;;;;;;1.73;1.63;;;;;;;5.84;57.42;99510.94;3895990;74;383763;-81
2021/03/19 13:52:32;;;;;;;3.53;2.40;;;;;;;6.78;56.73;99516.92;3894986;74;396063;-81
2021/03/19 13:57:58;;;;;;;1.83;1.10;;;;;;;7.72;51.53;99512.98;3895090;74;396034;-81
2021/03/19 14:03:20;;;;;;;2.40;2.10;;;;;;;7.97;48.08;99514.11;3895333;74;396006;-81
2021/03/19 14:08:42;;;;;;;2.70;1.47;;;;;;;7.41;51.33;99528.92;3895360;74;396114;-81
2021/03/19 14:14:03;;;;;;;1.60;1.10;;;;;;;8.07;48.96;99523.05;3894438;74;383799;-81
2021/03/19 14:19:25;;;;;;;4.53;1.70;;;;;;;8.11;47.04;99521.14;3883103;74;397109;-80
2021/03/19 14:24:47;;;;;;;8.23;1.77;;;;;;;8.94;49.85;99526.23;3882953;75;398420;-80
2021/03/19 14:30:09;;;;;;;2.47;0.80;;;;;;;9.17;45.06;99516.42;3883751;74;385673;-80
2021/03/19 14:35:32;;;;;;;1.67;1.30;;;;;;;8.70;47.33;99521.08;3882940;74;396328;-80
2021/03/19 14:40:56;;;;;;;1.43;1.20;;;;;;;7.94;48.67;99535.39;3883501;75;384515;-80
2021/03/19 14:46:17;;;;;;;1.00;0.70;;;;;;;7.93;47.32;99532.44;3883640;74;390119;-82
2021/03/19 14:51:39;;;;;;;1.50;1.10;;;;;;;8.79;48.51;99531.38;3883460;75;384559;-81
2021/03/19 14:57:00;;;;;;;2.47;1.70;;;;;;;9.66;44.28;99538.98;3771700;77;397044;-82
2021/03/19 15:02:21;;;;;;;1.50;1.33;;;;;;;9.05;43.72;99540.83;3742253;78;394184;-81
2021/03/19 15:07:43;;;;;;;5.83;2.27;;;;;;;9.31;45.74;99544.80;3741841;78;396212;-81
2021/03/19 15:13:05;;;;;;;3.03;2.40;;;;;;;8.66;44.27;99554.52;3741518;77;397031;-81
2021/03/19 15:18:28;;;;;;;3.87;2.30;;;;;;;7.66;47.71;99556.91;3753119;78;396128;-81
2021/03/19 15:23:51;;;;;;;1.13;1.00;;;;;;;7.34;50.65;99558.92;3753966;77;387735;-81
2021/03/19 15:29:13;;;;;;;1.10;0.90;;;;;;;6.56;53.94;99561.98;3736035;78;393162;-79
2021/03/19 15:34:34;;;;;;;2.30;1.13;;;;;;;6.27;53.83;99563.95;3753861;77;387751;-79
2021/03/19 15:39:56;;;;;;;1.27;1.03;;;;;;;6.53;52.98;99555.89;3753714;77;388657;-80
2021/03/19 15:45:17;;;;;;;1.73;1.30;;;;;;;7.71;50.99;99559.32;3753448;78;393950;-80
2021/03/19 15:50:41;;;;;;;1.70;1.03;;;;;;;7.33;50.52;99569.09;3753102;78;394927;-80
2021/03/19 15:56:04;;;;;;;2.80;1.83;;;;;;;6.33;54.55;99578.90;3753360;78;393946;-80
2021/03/19 16:01:25;;;;;;;4.90;1.60;;;;;;;5.42;66.58;99582.84;3753252;78;394231;-80
2021/03/19 16:06:47;;;;;;;1.67;1.57;;;;;;;5.09;68.63;99591.17;3753435;77;395031;-80
2021/03/19 16:12:08;;;;;;;2.30;1.53;;;;;;;5.62;68.33;99586.66;3753112;77;396065;-80
2021/03/19 16:17:31;;;;;;;2.57;1.73;;;;;;;6.68;64.95;99585.08;3739738;78;391900;-80
2021/03/19 16:22:53;;;;;;;1.97;1.20;;;;;;;9.23;55.56;99591.80;3753668;78;389778;-80
2021/03/19 16:28:17;;;;;;;7.03;1.57;;;;;;;10.61;49.57;99602.22;3780811;76;394002;-81
2021/03/19 16:33:39;;;;;;;1.23;0.80;;;;;;;11.62;47.98;99599.11;3768047;75;384540;-81
2021/03/19 16:39:00;;;;;;;1.90;1.67;;;;;;;12.08;44.41;99606.17;3891399;74;394291;-80
2021/03/19 16:44:21;;;;;;;1.10;1.00;;;;;;;12.42;43.32;99614.19;3889936;75;384561;-81
2021/03/19 16:49:42;;;;;;;2.70;1.27;;;;;;;10.88;46.11;99629.05;3889430;74;396157;-81
2021/03/19 16:55:09;;;;;;;1.20;1.10;;;;;;;10.32;45.73;99628.58;3889803;74;391861;-80
2021/03/19 17:00:30;;;;;;;2.40;2.20;;;;;;;8.84;44.98;99633.91;3890903;72;394377;-82
2021/03/19 17:05:51;;;;;;;2.50;1.17;;;;;;;6.49;51.95;99639.19;3772535;76;394261;-81
2021/03/19 17:11:13;;;;;;;1.30;1.20;;;;;;;5.43;55.68;99641.73;3765182;78;396053;-81
2021/03/19 17:16:34;;;;;;;1.47;1.10;;;;;;;4.88;58.21;99639.11;3753186;76;385657;-80
2021/03/19 17:21:57;;;;;;;1.43;0.90;;;;;;;4.63;59.90;99639.55;3895424;74;394393;-81
2021/03/19 17:27:18;;;;;;;3.20;2.57;;;;;;;4.35;61.32;99642.84;3894915;74;396145;-80
2021/03/19 17:32:40;;;;;;;1.53;1.27;;;;;;;4.27;63.28;99673.72;3895043;75;396117;-81
2021/03/19 17:38:01;;;;;;;2.20;1.37;;;;;;;4.03;65.93;99680.57;3895554;74;388868;-81
2021/03/19 17:43:25;;;;;;;5.00;1.20;;;;;;;3.83;68.14;99690.77;3896264;74;387965;-81
2021/03/19 17:48:47;;;;;;;1.30;1.20;;;;;;;3.64;75.43;99693.23;3895632;74;389985;-82
2021/03/19 17:54:08;;;;;;;1.63;1.10;;;;;;;3.35;81.74;99701.02;3749140;77;396374;-82
2021/03/19 17:59:30;;;;;;;4.60;1.73;;;;;;;3.10;86.17;99697.80;3895288;74;394023;-82
2021/03/19 18:04:51;;;;;;;3.10;1.60;;;;;;;2.96;89.05;99704.08;3748757;77;396126;-82
2021/03/19 18:10:15;;;;;;;4.20;1.37;;;;;;;3.02;91.04;99710.91;3895219;75;396592;-82
2021/03/19 18:15:37;;;;;;;2.10;1.80;;;;;;;2.64;93.66;99713.80;3895848;74;391947;-82
2021/03/19 18:21:00;;;;;;;6.13;1.10;;;;;;;2.64;97.34;99717.88;3773548;77;388774;-82
2021/03/19 18:26:23;;;;;;;1.57;0.77;;;;;;;2.51;98.60;99729.00;3742555;77;385688;-82
2021/03/19 18:31:44;;;;;;;1.33;1.23;;;;;;;2.31;94.35;99723.55;3742328;78;388041;-81
2021/03/19 18:37:06;;;;;;;0.80;0.60;;;;;;;2.16;91.09;99730.92;3743323;78;383581;-82
2021/03/19 18:42:28;;;;;;;0.90;0.60;;;;;;;2.08;89.44;99734.48;3742969;77;383548;-82
2021/03/19 18:47:49;;;;;;;1.63;1.40;;;;;;;1.98;88.12;99738.92;3742548;77;383790;-81
2021/03/19 18:53:11;;;;;;;1.20;0.90;;;;;;;1.89;87.11;99749.02;3742716;78;388056;-82
2021/03/19 18:58:33;;;;;;;2.10;0.97;;;;;;;1.70;86.65;99754.03;3742178;78;388992;-80
2021/03/19 19:03:55;;;;;;;3.20;1.47;;;;;;;1.68;87.09;99767.92;3741794;77;396294;-82
2021/03/19 19:09:16;;;;;;;2.40;2.20;;;;;;;1.56;87.47;99767.01;3741466;77;396393;-81
2021/03/19 19:14:37;;;;;;;1.83;0.90;;;;;;;1.64;86.98;99779.20;3741532;76;395032;-81
2021/03/19 19:19:59;;;;;;;1.40;1.30;;;;;;;1.57;89.22;99775.95;3736596;78;396050;-82
2021/03/19 19:25:21;;;;;;;0.90;0.70;;;;;;;1.54;88.60;99771.95;3737911;78;383566;-82
2021/03/19 19:30:45;;;;;;;2.03;1.03;;;;;;;1.63;88.10;99778.14;3753446;78;389848;-82
2021/03/19 19:36:08;;;;;;;1.20;1.00;;;;;;;1.64;88.15;99791.41;3781559;76;391918;-81
2021/03/19 19:41:29;;;;;;;2.90;0.73;;;;;;;1.58;89.09;99798.09;3736617;78;383577;-81
2021/03/19 19:46:50;;;;;;;0.80;0.50;;;;;;;1.57;88.99;99796.29;3754170;78;383569;-81
2021/03/19 19:52:13;;;;;;;1.43;1.33;;;;;;;1.56;90.63;99802.83;3753686;78;389824;-81
2021/03/19 19:57:35;;;;;;;2.10;0.90;;;;;;;1.59;90.24;99798.91;3735566;77;390815;-82
2021/03/19 20:02:56;;;;;;;2.27;1.17;;;;;;;1.68;92.80;99799.69;3753924;78;383581;-81
2021/03/19 20:08:23;;;;;;;1.00;0.83;;;;;;;1.51;92.37;99814.64;3754129;78;383581;-81
2021/03/19 20:13:44;;;;;;;2.83;1.30;;;;;;;1.31;94.27;99821.28;3735660;78;392109;-81
2021/03/19 20:19:08;;;;;;;1.23;1.13;;;;;;;1.08;97.04;99815.23;3763297;77;391930;-81
2021/03/19 20:24:30;;;;;;;5.70;2.27;;;;;;;1.02;99.09;99817.87;3743814;77;391874;-81
2021/03/19 20:29:51;;;;;;;0.90;0.60;;;;;;;1.03;100.00;99822.19;3679880;78;383842;-81
2021/03/19 20:35:15;;;;;;;1.53;1.43;;;;;;;0.99;100.00;99830.70;3828174;75;391902;-82
2021/03/19 20:40:37;;;;;;;2.60;1.53;;;;;;;0.88;100.00;99842.98;3827132;76;387805;-81
2021/03/19 20:45:59;;;;;;;0.80;0.50;;;;;;;0.88;100.00;99842.16;3827835;75;383590;-80
2021/03/19 20:51:22;;;;;;;2.10;2.00;;;;;;;0.93;100.00;99848.23;3827521;75;392180;-81
2021/03/19 20:56:46;;;;;;;1.20;1.10;;;;;;;1.05;100.00;99851.08;3827362;75;393165;-81
2021/03/19 21:02:10;;;;;;;1.73;1.00;;;;;;;1.01;100.00;99852.85;3827804;75;390138;-82
2021/03/19 21:07:32;;;;;;;2.40;2.13;;;;;;;1.15;100.00;99861.61;3826480;75;396118;-81
2021/03/19 21:12:53;;;;;;;1.30;1.20;;;;;;;1.17;100.00;99869.44;3827663;75;394008;-81
2021/03/19 21:18:15;;;;;;;1.20;0.90;;;;;;;1.30;100.00;99880.09;3824736;74;387799;-81
2021/03/19 21:23:37;;;;;;;0.80;0.40;;;;;;;1.25;100.00;99885.69;3822816;76;383588;-81
2021/03/19 21:28:59;;;;;;;0.80;0.60;;;;;;;1.27;100.00;99888.89;3826988;76;383556;-81
2021/03/19 21:34:21;;;;;;;0.90;0.70;;;;;;;1.36;100.00;99897.81;3822767;75;385722;-81
2021/03/19 21:39:44;;;;;;;1.10;1.00;;;;;;;1.33;100.00;99903.86;3822459;75;383801;-81
2021/03/19 21:45:07;;;;;;;1.63;1.07;;;;;;;1.36;100.00;99909.20;3822076;75;393961;-81
2021/03/19 21:50:33;;;;;;;1.47;1.37;;;;;;;1.24;100.00;99913.12;3822338;77;383793;-81
2021/03/19 21:55:56;;;;;;;1.13;1.03;;;;;;;1.28;100.00;99916.77;3822071;75;383585;-81
2021/03/19 22:01:18;;;;;;;1.80;0.60;;;;;;;1.28;100.00;99921.65;3821721;75;389872;-81
2021/03/19 22:06:41;;;;;;;1.97;1.00;;;;;;;1.13;100.00;99921.31;3821481;75;390075;-81
2021/03/19 22:12:01;;;;;;;0.97;0.87;;;;;;;1.24;100.00;99928.02;3822150;75;383595;-80
2021/03/19 22:17:22;;;;;;;1.27;0.90;;;;;;;1.11;100.00;99943.31;3839803;75;394278;-81
2021/03/19 22:22:43;;;;;;;0.90;0.70;;;;;;;1.10;100.00;99940.36;3775211;77;383569;-80
2021/03/19 22:28:05;;;;;;;0.80;0.40;;;;;;;1.05;100.00;99944.55;3742860;78;383539;-81
2021/03/19 22:33:28;;;;;;;0.90;0.70;;;;;;;0.99;100.00;99943.11;3743218;78;383535;-81
2021/03/19 22:38:52;;;;;;;0.93;0.70;;;;;;;1.05;100.00;99954.03;3743510;78;383582;-81
2021/03/19 22:44:13;;;;;;;0.80;0.50;;;;;;;1.04;100.00;99948.94;3743000;78;383807;-81
2021/03/19 22:49:34;;;;;;;1.13;1.03;;;;;;;0.92;100.00;99947.42;3742671;77;383614;-81
2021/03/19 22:54:55;;;;;;;0.90;0.60;;;;;;;0.91;100.00;99947.95;3742897;78;383830;-81
2021/03/19 23:00:36;;;;;;;0.80;0.40;;;;;;;0.88;100.00;99946.44;3743058;78;383542;-80
2021/03/19 23:05:57;;;;;;;0.90;0.60;;;;;;;0.75;100.00;99951.97;3742904;78;383569;-81
2021/03/19 23:11:22;;;;;;;1.00;0.60;;;;;;;0.66;100.00;99951.14;3742953;78;383574;-81
2021/03/19 23:16:43;;;;;;;0.90;0.50;;;;;;;0.64;100.00;99958.80;3711270;74;383586;-81
2021/03/19 23:22:04;;;;;;;0.80;0.40;;;;;;;0.55;100.00;99963.37;3766214;77;383572;-80
2021/03/19 23:27:25;;;;;;;1.30;0.73;;;;;;;0.59;100.00;99965.16;3766153;77;386670;-80
2021/03/19 23:32:47;;;;;;;1.10;1.00;;;;;;;0.50;100.00;99967.02;3765599;77;387865;-80
2021/03/19 23:38:09;;;;;;;0.90;0.50;;;;;;;0.39;100.00;99970.31;3766085;78;387799;-81
2021/03/19 23:43:30;;;;;;;0.80;0.40;;;;;;;0.34;100.00;99973.95;3766149;77;383608;-81
2021/03/19 23:48:52;;;;;;;0.80;0.53;;;;;;;0.19;100.00;99978.95;3766342;77;383782;-80
2021/03/19 23:54:14;;;;;;;2.57;1.60;;;;;;;0.24;100.00;99980.98;3764584;77;396330;-80
2021/03/19 23:59:35;;;;;;;0.80;0.50;;;;;;;0.22;100.00;99985.11;3766168;77;383793;-80
